Time;durP1;ratioP1;P1;durP2;ratioP2;P2;SDS_P1;SDS_P2;PMS_P1;PMS_P2;Temp;Humidity;BMP_temperature;BMP_pressure;BME280_temperature;BME280_humidity;BME280_pressure;Samples;Min_cycle;Max_cycle;Signal;HPM_P1;HPM_P2
2022/01/21 00:02:18;;;;;;;3.13;0.68;;;1.50;98.60;;;;;;6247306;23;20244;-60
2022/01/21 00:04:44;;;;;;;3.20;0.50;;;1.60;98.40;;;;;;6246797;23;20140;-60
2022/01/21 00:07:09;;;;;;;3.10;0.90;;;1.60;98.30;;;;;;6247002;23;20148;-60
2022/01/21 00:09:35;;;;;;;2.92;0.65;;;1.60;98.30;;;;;;6247253;23;20144;-61
2022/01/21 00:12:00;;;;;;;1.75;0.50;;;1.50;98.10;;;;;;6246994;23;20140;-61
2022/01/21 00:14:27;;;;;;;1.58;0.50;;;1.50;98.10;;;;;;6246976;23;20144;-61
2022/01/21 00:16:53;;;;;;;1.30;0.40;;;1.50;98.00;;;;;;6246893;23;20188;-60
2022/01/21 00:19:20;;;;;;;2.10;0.60;;;1.50;98.00;;;;;;6246657;23;20573;-60
2022/01/21 00:30:13;;;;;;;1.08;0.55;;;1.60;96.60;;;;;;6246885;23;20187;-59
2022/01/21 00:32:40;;;;;;;3.00;0.80;;;1.70;96.60;;;;;;6247088;23;20202;-61
2022/01/21 00:35:07;;;;;;;2.97;0.60;;;1.60;96.70;;;;;;6246734;23;20140;-61
2022/01/21 00:37:33;;;;;;;2.42;0.65;;;1.60;96.90;;;;;;6247116;23;20176;-61
2022/01/21 00:40:00;;;;;;;2.97;0.75;;;1.60;96.90;;;;;;6247119;23;20155;-60
2022/01/21 00:45:07;;;;;;;0.90;0.30;;;1.60;96.50;;;;;;6246986;23;20551;-61
2022/01/21 00:47:32;;;;;;;2.85;0.68;;;1.60;96.30;;;;;;6246664;23;20469;-62
2022/01/21 00:49:58;;;;;;;5.63;0.70;;;1.60;95.90;;;;;;6246587;23;20155;-61
2022/01/21 00:52:24;;;;;;;2.55;0.60;;;1.60;96.20;;;;;;6246649;23;20148;-61
2022/01/21 00:54:49;;;;;;;1.55;0.50;;;1.60;95.80;;;;;;6246801;23;20144;-60
2022/01/21 00:57:15;;;;;;;2.30;0.90;;;1.60;95.90;;;;;;6246562;23;20164;-61
2022/01/21 00:59:40;;;;;;;1.27;0.60;;;1.60;95.90;;;;;;6246577;23;20144;-62
2022/01/21 01:02:06;;;;;;;1.05;0.30;;;1.60;95.80;;;;;;6246628;23;20133;-60
2022/01/21 01:04:31;;;;;;;1.73;0.50;;;1.50;95.70;;;;;;6246974;23;20608;-60
2022/01/21 01:06:57;;;;;;;1.90;0.43;;;1.50;95.70;;;;;;6246914;23;20148;-60
2022/01/21 01:09:22;;;;;;;6.18;0.50;;;1.50;95.50;;;;;;6246542;23;20145;-60
2022/01/21 01:22:22;;;;;;;1.50;0.45;;;1.60;95.10;;;;;;6246820;23;20178;-61
2022/01/21 01:30:00;;;;;;;3.20;0.57;;;1.60;94.90;;;;;;6246274;23;20219;-61
2022/01/21 01:32:28;;;;;;;1.17;0.50;;;1.60;95.00;;;;;;6247508;23;20187;-61
2022/01/21 01:34:54;;;;;;;3.10;0.40;;;1.60;94.90;;;;;;6248704;23;20455;-60
2022/01/21 01:37:35;;;;;;;1.65;0.38;;;1.50;94.70;;;;;;6248584;23;20168;-60
2022/01/21 01:40:19;;;;;;;1.70;0.80;;;1.50;94.60;;;;;;6248972;23;20129;-61
2022/01/21 01:50:57;;;;;;;0.90;0.30;;;1.60;94.40;;;;;;6248691;23;20427;-61
2022/01/21 01:53:37;;;;;;;2.03;0.45;;;1.60;94.20;;;;;;6248695;23;20198;-61
2022/01/21 01:56:06;;;;;;;2.13;0.73;;;1.60;94.10;;;;;;6248075;23;20233;-61
2022/01/21 01:58:39;;;;;;;1.40;0.45;;;1.60;94.10;;;;;;6248551;23;20144;-62
2022/01/21 02:01:05;;;;;;;2.13;0.40;;;1.50;93.90;;;;;;6248200;23;20148;-61
2022/01/21 02:03:31;;;;;;;1.85;0.55;;;1.50;93.90;;;;;;6248236;23;20151;-61
2022/01/21 02:05:56;;;;;;;0.80;0.40;;;1.50;93.90;;;;;;6248079;23;20213;-61
2022/01/21 02:08:22;;;;;;;1.48;0.50;;;1.50;94.00;;;;;;6248219;23;20149;-61
2022/01/21 02:10:47;;;;;;;3.22;0.57;;;1.50;94.00;;;;;;6248025;23;20217;-61
2022/01/21 02:13:22;;;;;;;1.83;0.60;;;1.50;94.10;;;;;;6248368;23;20148;-61
2022/01/21 02:16:08;;;;;;;4.32;0.50;;;1.40;94.30;;;;;;6247964;23;20643;-61
2022/01/21 02:21:31;;;;;;;2.83;0.60;;;1.30;95.00;;;;;;6247949;23;20135;-61
2022/01/21 02:23:58;;;;;;;1.77;0.47;;;1.30;95.60;;;;;;6248412;23;20133;-61
2022/01/21 02:26:24;;;;;;;2.08;0.50;;;1.20;95.90;;;;;;6248001;23;20223;-61
2022/01/21 02:28:49;;;;;;;5.22;0.52;;;1.20;96.10;;;;;;6248132;23;20183;-62
2022/01/21 02:31:15;;;;;;;1.98;0.50;;;1.20;96.20;;;;;;6247887;23;20155;-61
2022/01/21 02:33:40;;;;;;;1.55;0.50;;;1.10;96.40;;;;;;6221595;23;20149;-60
2022/01/21 02:36:06;;;;;;;2.38;0.50;;;1.10;96.90;;;;;;6247954;23;20172;-61
2022/01/21 02:38:31;;;;;;;2.58;0.73;;;1.00;97.90;;;;;;6248015;23;20445;-61
2022/01/21 02:40:57;;;;;;;3.05;0.63;;;1.00;98.70;;;;;;6221588;23;20137;-61
2022/01/21 02:43:23;;;;;;;3.88;0.95;;;0.90;99.40;;;;;;6247710;23;20140;-61
2022/01/21 02:45:48;;;;;;;4.65;0.77;;;0.80;99.90;;;;;;6248424;23;20156;-59
2022/01/21 02:48:14;;;;;;;7.35;1.15;;;0.70;99.90;;;;;;6248461;23;20158;-60
2022/01/21 02:50:40;;;;;;;3.38;0.90;;;0.70;99.90;;;;;;6248106;23;20152;-59
2022/01/21 02:53:13;;;;;;;4.60;0.95;;;0.60;99.90;;;;;;6248232;23;20209;-59
2022/01/21 02:55:39;;;;;;;1.33;0.80;;;0.60;99.90;;;;;;6248529;23;20167;-60
2022/01/21 02:58:04;;;;;;;3.67;1.13;;;0.60;99.90;;;;;;6247949;23;20145;-60
2022/01/21 03:00:30;;;;;;;3.05;1.00;;;0.50;99.90;;;;;;6247728;23;20144;-60
2022/01/21 03:02:56;;;;;;;6.05;1.08;;;0.50;99.90;;;;;;6247765;23;20571;-59
2022/01/21 03:05:21;;;;;;;2.45;0.80;;;0.50;99.90;;;;;;6247831;23;20176;-60
2022/01/21 03:07:47;;;;;;;3.92;0.80;;;0.50;99.90;;;;;;6248115;23;20151;-60
2022/01/21 03:10:14;;;;;;;3.30;1.15;;;0.50;99.90;;;;;;6248035;23;20170;-60
2022/01/21 03:12:40;;;;;;;4.10;0.80;;;0.40;99.90;;;;;;6247890;23;20152;-61
2022/01/21 03:15:07;;;;;;;4.60;0.90;;;0.40;99.90;;;;;;6247668;23;20223;-60
2022/01/21 03:17:33;;;;;;;5.28;1.10;;;0.40;99.90;;;;;;6247841;23;20164;-60
2022/01/21 03:19:58;;;;;;;4.30;0.80;;;0.40;99.90;;;;;;6247639;23;20156;-61
2022/01/21 03:22:24;;;;;;;3.97;0.73;;;0.30;99.90;;;;;;6247792;23;20554;-59
2022/01/21 03:24:49;;;;;;;3.85;0.85;;;0.30;99.90;;;;;;6247920;23;20160;-57
2022/01/21 03:27:16;;;;;;;2.75;0.60;;;0.30;99.90;;;;;;6247535;23;20149;-59
2022/01/21 03:29:42;;;;;;;4.82;1.55;;;0.30;99.90;;;;;;6247523;23;20575;-61
2022/01/21 03:32:08;;;;;;;3.08;0.73;;;0.30;99.90;;;;;;6248407;23;20167;-61
2022/01/21 03:34:33;;;;;;;2.83;0.80;;;0.20;99.90;;;;;;6249249;23;20453;-61
2022/01/21 03:36:59;;;;;;;5.13;1.08;;;0.20;99.90;;;;;;6249942;23;20516;-61
2022/01/21 03:39:24;;;;;;;4.82;0.85;;;0.20;99.90;;;;;;6249292;23;20167;-61
2022/01/21 03:41:50;;;;;;;3.40;1.08;;;0.20;99.90;;;;;;6249055;23;20141;-59
2022/01/21 03:44:15;;;;;;;3.20;0.82;;;0.20;99.90;;;;;;6249641;23;20210;-61
2022/01/21 03:46:41;;;;;;;2.50;0.70;;;0.20;99.90;;;;;;6249089;23;20148;-60
2022/01/21 03:49:08;;;;;;;1.55;1.00;;;0.10;99.90;;;;;;6249411;23;20431;-61
2022/01/21 03:51:34;;;;;;;5.20;1.00;;;0.10;99.90;;;;;;6249693;23;20159;-61
2022/01/21 03:53:59;;;;;;;2.05;0.57;;;0.10;99.90;;;;;;6249696;23;20456;-61
2022/01/21 03:56:25;;;;;;;3.80;0.95;;;0.10;99.90;;;;;;6248456;23;20214;-61
2022/01/21 03:58:50;;;;;;;4.13;0.85;;;0.10;99.90;;;;;;6248467;23;20148;-60
2022/01/21 04:01:18;;;;;;;4.32;0.82;;;0.10;99.90;;;;;;6248942;23;20421;-61
2022/01/21 04:03:43;;;;;;;2.97;0.80;;;0.10;99.90;;;;;;6249443;23;20144;-62
2022/01/21 04:06:09;;;;;;;2.92;0.60;;;0.10;99.90;;;;;;6260156;23;20174;-62
2022/01/21 04:08:34;;;;;;;6.75;0.90;;;0.10;99.90;;;;;;6247362;23;20144;-62
2022/01/21 04:11:00;;;;;;;4.53;0.70;;;0.10;99.90;;;;;;6247276;23;20440;-61
2022/01/21 04:13:26;;;;;;;7.20;0.90;;;0.10;99.90;;;;;;6246908;23;20147;-61
2022/01/21 04:15:55;;;;;;;6.82;1.30;;;0.00;99.90;;;;;;6247233;23;20168;-61
2022/01/21 04:18:22;;;;;;;4.80;0.90;;;0.00;99.90;;;;;;6246715;23;20148;-61
2022/01/21 04:20:48;;;;;;;2.13;0.90;;;0.00;99.90;;;;;;6247500;23;20215;-61
2022/01/21 04:23:15;;;;;;;4.00;0.90;;;0.00;99.90;;;;;;6247101;23;20153;-61
2022/01/21 04:25:41;;;;;;;5.28;1.20;;;0.00;99.90;;;;;;6247006;23;20564;-61
2022/01/21 04:28:07;;;;;;;3.58;1.05;;;0.00;99.90;;;;;;6246835;23;20155;-61
2022/01/21 04:30:33;;;;;;;2.25;0.90;;;0.00;99.90;;;;;;6247015;23;20159;-61
2022/01/21 04:32:58;;;;;;;3.25;1.00;;;0.00;99.90;;;;;;6246852;23;20458;-61
2022/01/21 04:35:24;;;;;;;1.33;0.88;;;0.00;99.90;;;;;;6246800;23;20202;-61
2022/01/21 04:37:55;;;;;;;2.35;1.20;;;0.00;99.90;;;;;;6220308;23;20155;-61
2022/01/21 04:40:23;;;;;;;1.90;0.77;;;0.00;99.90;;;;;;6247228;23;20202;-61
2022/01/21 04:48:17;;;;;;;3.13;1.00;;;0.00;99.90;;;;;;6246736;23;20132;-60
2022/01/21 04:50:53;;;;;;;4.45;1.27;;;-0.10;99.90;;;;;;6246784;23;20439;-61
2022/01/21 04:53:20;;;;;;;5.70;1.33;;;0.00;99.90;;;;;;6247246;23;20140;-61
2022/01/21 04:55:46;;;;;;;2.55;0.88;;;0.00;99.90;;;;;;6246702;23;20588;-60
2022/01/21 04:58:12;;;;;;;4.05;1.15;;;-0.10;99.90;;;;;;6247000;23;20152;-61
2022/01/21 05:00:37;;;;;;;4.70;1.23;;;-0.10;99.90;;;;;;6246744;23;20540;-61
2022/01/21 05:03:03;;;;;;;5.70;1.20;;;-0.10;99.90;;;;;;6246545;23;20610;-61
2022/01/21 05:05:29;;;;;;;2.10;0.90;;;-0.10;99.90;;;;;;6220344;23;20197;-61
2022/01/21 05:07:55;;;;;;;2.35;0.75;;;0.00;99.90;;;;;;6246635;23;20191;-58
2022/01/21 05:10:24;;;;;;;2.00;0.85;;;0.00;99.90;;;;;;6246719;23;20172;-61
2022/01/21 05:12:49;;;;;;;2.88;0.85;;;0.00;99.90;;;;;;6246676;23;20167;-61
2022/01/21 05:15:21;;;;;;;2.85;1.00;;;0.00;99.90;;;;;;6246651;23;20548;-59
2022/01/21 05:17:49;;;;;;;3.70;1.02;;;0.00;99.90;;;;;;6216178;23;20181;-60
2022/01/21 05:20:16;;;;;;;8.35;1.40;;;0.00;99.90;;;;;;6220555;23;20156;-61
2022/01/21 05:22:42;;;;;;;9.52;0.98;;;0.00;99.90;;;;;;6216227;23;20440;-61
2022/01/21 05:25:09;;;;;;;4.15;1.15;;;0.00;99.90;;;;;;6217481;23;20145;-58
2022/01/21 05:27:34;;;;;;;1.92;0.98;;;0.10;99.90;;;;;;6216860;23;20149;-59
2022/01/21 05:30:00;;;;;;;2.58;0.80;;;0.10;99.90;;;;;;6220709;23;20236;-60
2022/01/21 05:32:26;;;;;;;4.03;0.98;;;0.10;99.90;;;;;;6223658;23;20576;-60
2022/01/21 05:34:52;;;;;;;4.10;1.02;;;0.10;99.90;;;;;;6216462;23;20232;-60
2022/01/21 05:37:17;;;;;;;3.45;1.00;;;0.20;99.90;;;;;;6216417;23;20260;-60
2022/01/21 05:39:45;;;;;;;2.72;0.80;;;0.20;99.90;;;;;;6216496;23;20149;-60
2022/01/21 05:42:11;;;;;;;3.25;1.08;;;0.20;99.90;;;;;;6216635;23;20141;-60
2022/01/21 05:47:04;;;;;;;3.75;0.90;;;0.30;99.90;;;;;;6216393;23;20487;-60
2022/01/21 05:49:31;;;;;;;2.35;0.80;;;0.30;99.90;;;;;;6215810;23;20153;-61
2022/01/21 05:52:07;;;;;;;1.83;0.77;;;0.30;99.90;;;;;;6216073;23;20441;-62
2022/01/21 05:54:33;;;;;;;5.30;0.95;;;0.30;99.90;;;;;;6216274;23;20137;-61
2022/01/21 05:57:01;;;;;;;3.13;1.00;;;0.30;99.90;;;;;;6189880;23;20169;-61
2022/01/21 05:59:26;;;;;;;2.97;1.05;;;0.30;99.90;;;;;;6216098;23;20172;-61
2022/01/21 06:01:52;;;;;;;4.38;0.93;;;0.30;99.90;;;;;;6216060;23;20141;-61
2022/01/21 06:04:17;;;;;;;3.35;1.10;;;0.40;99.90;;;;;;6216267;23;20195;-61
2022/01/21 06:06:43;;;;;;;2.83;0.77;;;0.40;99.90;;;;;;6190017;23;20172;-60
2022/01/21 06:09:08;;;;;;;1.42;0.70;;;0.40;99.90;;;;;;6189861;23;20160;-61
2022/01/21 06:11:34;;;;;;;2.95;0.80;;;0.40;99.90;;;;;;6216037;23;20145;-61
2022/01/21 06:14:02;;;;;;;4.70;1.00;;;0.40;99.90;;;;;;6215791;23;20149;-61
2022/01/21 06:16:28;;;;;;;3.58;1.00;;;0.50;99.90;;;;;;6216464;23;20164;-61
2022/01/21 06:18:54;;;;;;;5.32;1.20;;;0.50;99.90;;;;;;6216534;23;20165;-61
2022/01/21 06:21:20;;;;;;;3.78;0.95;;;0.40;99.90;;;;;;6217985;23;20144;-61
2022/01/21 06:23:45;;;;;;;6.13;1.13;;;0.50;99.90;;;;;;6217726;23;20541;-61
2022/01/21 06:26:11;;;;;;;5.55;1.15;;;0.50;99.90;;;;;;6217690;23;20183;-61
2022/01/21 06:28:37;;;;;;;4.85;0.90;;;0.50;99.90;;;;;;6217816;23;20155;-61
2022/01/21 06:31:02;;;;;;;5.03;1.05;;;0.50;99.90;;;;;;6217679;23;20149;-61
2022/01/21 06:33:28;;;;;;;4.70;1.08;;;0.50;99.90;;;;;;6217766;23;20163;-61
2022/01/21 06:35:53;;;;;;;4.95;1.00;;;0.50;99.90;;;;;;6217591;23;20168;-61
2022/01/21 06:38:20;;;;;;;4.63;1.10;;;0.50;99.90;;;;;;6191437;23;20141;-61
2022/01/21 06:40:46;;;;;;;6.60;1.60;;;0.40;99.90;;;;;;6217988;23;20441;-61
2022/01/21 06:43:12;;;;;;;6.78;1.38;;;0.40;99.90;;;;;;6217812;23;20496;-60
2022/01/21 06:45:38;;;;;;;4.97;1.13;;;0.40;99.90;;;;;;6191869;23;20231;-61
2022/01/21 06:48:04;;;;;;;4.75;1.00;;;0.40;99.90;;;;;;6191491;23;20516;-61
2022/01/21 06:50:30;;;;;;;5.45;0.93;;;0.50;99.90;;;;;;6217639;23;20151;-61
2022/01/21 06:52:56;;;;;;;5.10;0.95;;;0.50;99.90;;;;;;6191526;23;20148;-60
2022/01/21 06:55:21;;;;;;;4.03;1.20;;;0.50;99.90;;;;;;6217890;23;20177;-61
2022/01/21 06:57:47;;;;;;;2.28;1.15;;;0.50;99.90;;;;;;6218616;23;20180;-61
2022/01/21 07:00:18;;;;;;;7.03;1.33;;;0.50;99.90;;;;;;6217804;23;20449;-61
2022/01/21 07:02:47;;;;;;;5.22;1.08;;;0.50;99.90;;;;;;6217602;23;20537;-61
2022/01/21 07:05:13;;;;;;;2.03;0.80;;;0.50;99.90;;;;;;6217415;23;20455;-60
2022/01/21 07:07:39;;;;;;;3.83;1.05;;;0.50;99.90;;;;;;6217551;23;20195;-60
2022/01/21 07:10:06;;;;;;;4.60;1.25;;;0.50;99.90;;;;;;6217573;23;20149;-61
2022/01/21 07:12:33;;;;;;;4.13;1.33;;;0.60;99.90;;;;;;6217724;23;20163;-61
2022/01/21 07:14:58;;;;;;;4.82;1.20;;;0.60;99.90;;;;;;6217367;23;20145;-61
2022/01/21 07:17:24;;;;;;;1.58;0.80;;;0.60;99.90;;;;;;6217243;23;20270;-60
2022/01/21 07:19:49;;;;;;;4.30;1.00;;;0.60;99.90;;;;;;6217200;23;20160;-60
2022/01/21 07:22:15;;;;;;;4.22;1.00;;;0.60;99.90;;;;;;6217233;23;20141;-61
2022/01/21 07:24:40;;;;;;;1.58;0.70;;;0.60;99.90;;;;;;6217522;23;20145;-61
2022/01/21 07:27:06;;;;;;;7.00;1.17;;;0.60;99.90;;;;;;6217312;23;20156;-61
2022/01/21 07:29:32;;;;;;;4.93;1.05;;;0.60;99.90;;;;;;6216954;23;20171;-61
2022/01/21 07:31:57;;;;;;;4.93;0.80;;;0.70;99.90;;;;;;6216976;23;20145;-60
2022/01/21 07:34:24;;;;;;;3.45;0.70;;;0.70;99.90;;;;;;6217420;23;20496;-61
2022/01/21 07:36:51;;;;;;;3.72;0.95;;;0.70;99.90;;;;;;6216972;23;20168;-61
2022/01/21 07:39:16;;;;;;;7.25;1.20;;;0.70;99.90;;;;;;6217024;23;20137;-61
2022/01/21 07:41:42;;;;;;;4.32;0.90;;;0.70;99.90;;;;;;6217114;23;20144;-61
2022/01/21 07:44:07;;;;;;;4.15;0.90;;;0.80;99.90;;;;;;6217446;23;20148;-58
2022/01/21 07:46:33;;;;;;;7.78;1.00;;;0.80;99.90;;;;;;6191201;23;20148;-61
2022/01/21 07:48:59;;;;;;;1.33;0.57;;;0.80;99.90;;;;;;6191224;23;20620;-61
2022/01/21 07:51:25;;;;;;;5.43;1.13;;;0.80;99.90;;;;;;6217042;23;20553;-60
2022/01/21 07:53:51;;;;;;;3.67;0.98;;;0.90;99.90;;;;;;6217189;23;20145;-61
2022/01/21 07:56:16;;;;;;;5.75;1.10;;;0.90;99.90;;;;;;6217142;23;20608;-60
2022/01/21 07:58:42;;;;;;;3.13;1.00;;;0.90;99.90;;;;;;6216789;23;20137;-60
2022/01/21 08:01:08;;;;;;;3.45;0.70;;;1.00;99.90;;;;;;6216928;23;20137;-61
2022/01/21 08:03:33;;;;;;;2.92;1.00;;;1.00;99.90;;;;;;6216875;23;20214;-61
2022/01/21 08:05:59;;;;;;;4.25;0.93;;;1.00;99.90;;;;;;6216727;23;20580;-61
2022/01/21 08:08:26;;;;;;;2.60;0.93;;;1.10;99.90;;;;;;6217261;23;20191;-61
2022/01/21 08:10:52;;;;;;;4.43;1.30;;;1.10;99.90;;;;;;6216648;23;20145;-62
2022/01/21 08:13:18;;;;;;;3.83;0.95;;;1.10;99.90;;;;;;6217091;23;20157;-61
2022/01/21 08:15:43;;;;;;;5.40;1.02;;;1.20;99.90;;;;;;6216445;23;20627;-59
2022/01/21 08:18:09;;;;;;;5.78;1.08;;;1.20;99.90;;;;;;6216496;23;20538;-61
2022/01/21 08:20:35;;;;;;;3.53;0.80;;;1.20;99.90;;;;;;6216717;23;20206;-61
2022/01/21 08:23:01;;;;;;;2.50;1.00;;;1.20;99.90;;;;;;6216465;23;20149;-61
2022/01/21 08:25:26;;;;;;;2.95;0.70;;;1.30;99.90;;;;;;6216864;23;20145;-61
2022/01/21 08:27:52;;;;;;;5.03;1.30;;;1.30;99.90;;;;;;6216692;23;20159;-61
2022/01/21 08:30:17;;;;;;;7.50;1.20;;;1.30;99.90;;;;;;6216443;23;20157;-60
2022/01/21 08:32:43;;;;;;;3.03;0.77;;;1.30;99.90;;;;;;6216585;23;20209;-59
2022/01/21 08:35:09;;;;;;;5.78;0.85;;;1.40;99.90;;;;;;6216889;23;20221;-60
2022/01/21 08:37:35;;;;;;;3.55;0.70;;;1.40;99.90;;;;;;6216584;23;20176;-61
2022/01/21 08:40:01;;;;;;;3.05;0.88;;;1.40;99.90;;;;;;6216215;23;20234;-61
2022/01/21 08:42:27;;;;;;;6.88;0.85;;;1.50;99.90;;;;;;6216391;23;20500;-61
2022/01/21 08:44:52;;;;;;;5.07;0.85;;;1.50;99.90;;;;;;6215755;23;20473;-60
2022/01/21 08:47:20;;;;;;;2.05;0.60;;;1.60;99.90;;;;;;6216071;23;20144;-61
2022/01/21 08:49:48;;;;;;;2.90;0.80;;;1.60;99.90;;;;;;6190436;23;20199;-61
2022/01/21 08:52:19;;;;;;;2.20;0.70;;;1.60;99.90;;;;;;6216234;23;20153;-62
2022/01/21 08:54:45;;;;;;;2.70;0.73;;;1.70;99.90;;;;;;6216454;23;20223;-61
2022/01/21 08:57:11;;;;;;;1.52;0.43;;;1.70;99.90;;;;;;6216350;23;20179;-61
2022/01/21 08:59:36;;;;;;;5.60;0.80;;;1.70;99.90;;;;;;6216341;23;20145;-60
2022/01/21 09:02:02;;;;;;;1.80;0.60;;;1.70;99.90;;;;;;6215812;23;20148;-61
2022/01/21 09:04:28;;;;;;;6.18;0.82;;;1.80;99.90;;;;;;6216178;23;20443;-61
2022/01/21 09:06:53;;;;;;;2.22;0.68;;;1.80;99.90;;;;;;6216289;23;20191;-59
2022/01/21 09:09:19;;;;;;;2.03;0.82;;;1.90;99.90;;;;;;6216515;23;20487;-61
2022/01/21 09:11:44;;;;;;;1.52;0.80;;;1.90;99.90;;;;;;6216342;23;20425;-60
2022/01/21 09:14:10;;;;;;;4.30;0.93;;;2.00;99.90;;;;;;6216648;23;20229;-61
2022/01/21 09:16:36;;;;;;;2.97;0.60;;;2.10;99.90;;;;;;6188426;23;20168;-60
2022/01/21 09:19:03;;;;;;;3.53;0.77;;;2.10;99.90;;;;;;6216006;23;20152;-60
2022/01/21 09:21:31;;;;;;;1.63;0.77;;;2.10;99.90;;;;;;6216224;23;20137;-59
2022/01/21 09:23:57;;;;;;;4.43;0.70;;;2.20;99.90;;;;;;6216440;23;20223;-59
2022/01/21 09:26:24;;;;;;;4.15;0.80;;;2.30;99.90;;;;;;6216365;23;20169;-60
2022/01/21 09:28:51;;;;;;;3.60;0.80;;;2.30;99.90;;;;;;6215738;23;20439;-60
2022/01/21 09:31:17;;;;;;;2.35;0.70;;;2.40;99.90;;;;;;6216902;23;20148;-59
2022/01/21 09:33:43;;;;;;;3.17;1.02;;;2.40;99.90;;;;;;6190077;23;20223;-59
2022/01/21 09:36:10;;;;;;;2.78;0.60;;;2.50;99.90;;;;;;6216301;23;20200;-60
2022/01/21 09:38:36;;;;;;;2.08;0.50;;;2.50;99.90;;;;;;6216411;23;20557;-59
2022/01/21 09:41:02;;;;;;;2.05;0.60;;;2.60;99.90;;;;;;6215386;23;20441;-60
2022/01/21 09:43:28;;;;;;;1.23;0.80;;;2.60;99.90;;;;;;6215925;23;20141;-61
2022/01/21 09:45:55;;;;;;;3.33;0.85;;;2.70;99.90;;;;;;6216754;23;20555;-60
2022/01/21 09:48:24;;;;;;;2.60;0.60;;;2.70;99.90;;;;;;6216428;23;20149;-59
2022/01/21 09:50:51;;;;;;;2.72;0.80;;;2.80;99.90;;;;;;6216608;23;20199;-60
2022/01/21 09:53:24;;;;;;;7.05;0.90;;;2.80;99.90;;;;;;6217103;23;20153;-61
2022/01/21 09:55:50;;;;;;;3.80;1.23;;;2.80;99.90;;;;;;6218091;23;20116;-61
2022/01/21 09:58:15;;;;;;;5.82;1.15;;;2.80;99.90;;;;;;6191611;23;20145;-59
2022/01/21 10:00:41;;;;;;;4.43;1.23;;;2.80;99.90;;;;;;6217731;23;20141;-59
2022/01/21 10:03:07;;;;;;;4.20;0.90;;;2.90;99.90;;;;;;6218206;23;20141;-61
2022/01/21 10:05:33;;;;;;;4.07;1.20;;;2.90;99.90;;;;;;6190597;23;20840;-61
2022/01/21 10:07:59;;;;;;;4.07;1.00;;;2.90;99.90;;;;;;6217462;23;20372;-60
2022/01/21 10:10:25;;;;;;;2.22;0.95;;;2.90;99.90;;;;;;6191628;23;20216;-60
2022/01/21 10:12:51;;;;;;;6.53;1.08;;;2.80;99.90;;;;;;6217993;23;20570;-59
2022/01/21 10:15:17;;;;;;;2.92;0.80;;;2.80;99.90;;;;;;6218141;23;20215;-59
2022/01/21 10:18:08;;;;;;;2.55;0.80;;;2.90;99.90;;;;;;6218185;23;20172;-62
2022/01/21 10:20:34;;;;;;;2.72;0.68;;;2.90;99.90;;;;;;6217669;23;20180;-62
2022/01/21 10:23:05;;;;;;;2.17;0.90;;;2.90;99.90;;;;;;6217584;23;20369;-61
2022/01/21 10:25:32;;;;;;;8.98;2.40;;;2.90;99.90;;;;;;6217475;23;20156;-61
2022/01/21 10:28:12;;;;;;;5.70;1.10;;;2.90;99.90;;;;;;6191576;23;20199;-60
2022/01/21 10:30:39;;;;;;;3.15;0.80;;;2.90;99.90;;;;;;6218102;23;20133;-60
2022/01/21 10:33:21;;;;;;;1.95;0.70;;;3.00;99.90;;;;;;6217774;23;20156;-61
2022/01/21 10:35:49;;;;;;;4.07;0.75;;;2.90;99.90;;;;;;6218553;23;20204;-61
2022/01/21 10:38:15;;;;;;;4.03;0.68;;;2.90;99.90;;;;;;6219285;23;20195;-60
2022/01/21 10:40:41;;;;;;;4.05;0.80;;;3.00;99.90;;;;;;6218181;23;20219;-61
2022/01/21 10:43:15;;;;;;;3.03;1.08;;;2.90;99.90;;;;;;6217692;23;20145;-61
2022/01/21 10:45:52;;;;;;;5.57;0.90;;;3.00;99.90;;;;;;6218211;23;20133;-61
2022/01/21 10:48:17;;;;;;;2.67;0.73;;;3.00;99.90;;;;;;6219382;23;20196;-61
2022/01/21 10:50:43;;;;;;;3.38;0.93;;;3.00;99.90;;;;;;6219198;23;20500;-61
2022/01/21 10:53:25;;;;;;;1.48;0.70;;;3.00;99.90;;;;;;6219217;23;20453;-60
2022/01/21 10:55:51;;;;;;;4.63;1.02;;;3.00;99.90;;;;;;6218692;23;20133;-60
2022/01/21 10:58:19;;;;;;;2.63;0.50;;;3.10;99.90;;;;;;6219107;23;20442;-61
2022/01/21 11:00:58;;;;;;;2.20;0.60;;;3.00;99.90;;;;;;6219441;23;20231;-61
2022/01/21 11:03:24;;;;;;;3.33;0.82;;;3.10;99.90;;;;;;6218845;23;20136;-61
2022/01/21 11:05:54;;;;;;;2.72;0.73;;;3.00;99.90;;;;;;6218335;23;20144;-63
2022/01/21 11:08:26;;;;;;;3.25;0.68;;;3.10;99.90;;;;;;6219288;23;20243;-62
2022/01/21 11:10:52;;;;;;;4.07;0.80;;;3.10;99.90;;;;;;6219548;23;20126;-62
2022/01/21 11:13:20;;;;;;;5.00;0.95;;;3.10;99.90;;;;;;6218918;23;20155;-63
2022/01/21 11:15:53;;;;;;;3.97;1.15;;;3.20;99.90;;;;;;6218789;23;20137;-62
2022/01/21 11:18:20;;;;;;;4.47;0.90;;;3.20;99.90;;;;;;6219899;23;20137;-62
2022/01/21 11:21:09;;;;;;;4.05;0.82;;;3.20;99.90;;;;;;6224829;23;20179;-62
2022/01/21 11:23:36;;;;;;;4.38;1.05;;;3.30;99.90;;;;;;6238428;23;20140;-60
2022/01/21 11:26:04;;;;;;;2.25;0.90;;;3.30;99.90;;;;;;6238605;23;20161;-60
2022/01/21 11:28:40;;;;;;;3.25;0.98;;;3.30;99.90;;;;;;6239297;23;20191;-60
2022/01/21 11:31:08;;;;;;;2.22;0.70;;;3.30;99.90;;;;;;6232497;23;20133;-60
2022/01/21 11:33:33;;;;;;;2.90;0.70;;;3.30;99.90;;;;;;6192730;23;20552;-60
2022/01/21 11:35:59;;;;;;;5.38;1.10;;;3.30;99.90;;;;;;6194139;23;20248;-60
2022/01/21 11:38:26;;;;;;;4.47;0.60;;;3.30;99.90;;;;;;6192684;23;20184;-60
2022/01/21 11:40:53;;;;;;;1.92;0.90;;;3.30;99.90;;;;;;6219667;23;20144;-60
2022/01/21 11:43:19;;;;;;;7.60;1.55;;;3.30;99.90;;;;;;6218877;23;20145;-61
2022/01/21 11:48:51;;;;;;;1.45;0.55;;;3.20;99.90;;;;;;6196110;23;20372;-60
2022/01/21 11:51:29;;;;;;;3.53;0.60;;;3.30;99.90;;;;;;6194106;23;20204;-61
2022/01/21 11:54:04;;;;;;;3.55;0.75;;;3.30;99.90;;;;;;6221260;23;20183;-61
2022/01/21 11:56:47;;;;;;;3.53;0.60;;;3.30;99.90;;;;;;6219559;23;20168;-61
2022/01/21 11:59:26;;;;;;;3.42;0.82;;;3.30;99.90;;;;;;6220274;23;20510;-63
2022/01/21 12:01:52;;;;;;;5.00;0.90;;;3.30;99.90;;;;;;6218451;23;20579;-61
2022/01/21 12:04:30;;;;;;;2.58;0.70;;;3.30;99.90;;;;;;6217938;23;20565;-60
2022/01/21 12:07:00;;;;;;;2.90;0.68;;;3.30;99.90;;;;;;6218185;23;20153;-62
2022/01/21 12:09:58;;;;;;;4.00;0.68;;;3.30;99.90;;;;;;6219505;23;20176;-62
2022/01/21 12:12:25;;;;;;;2.42;0.90;;;3.30;99.90;;;;;;6219124;23;20165;-60
2022/01/21 12:15:00;;;;;;;3.92;0.95;;;3.30;99.90;;;;;;6220366;23;20550;-60
2022/01/21 12:17:47;;;;;;;2.30;0.98;;;3.30;99.90;;;;;;6218923;23;20199;-60
2022/01/21 12:20:13;;;;;;;3.60;1.00;;;3.30;99.90;;;;;;6217779;23;20161;-61
2022/01/21 12:22:38;;;;;;;5.18;1.10;;;3.20;99.90;;;;;;6217289;23;20370;-61
2022/01/21 12:25:07;;;;;;;4.15;0.90;;;3.30;99.90;;;;;;6217940;23;20172;-62
2022/01/21 12:27:33;;;;;;;2.60;0.90;;;3.30;99.90;;;;;;6218030;23;20145;-62
2022/01/21 12:30:20;;;;;;;4.93;1.15;;;3.20;99.90;;;;;;6217884;23;20148;-62
2022/01/21 12:33:02;;;;;;;6.65;1.05;;;3.20;99.90;;;;;;6217773;23;20449;-61
2022/01/21 12:35:29;;;;;;;5.50;1.05;;;3.10;99.90;;;;;;6220166;23;20479;-61
2022/01/21 12:40:57;;;;;;;4.57;0.70;;;3.00;99.90;;;;;;6212414;23;20456;-61
2022/01/21 12:43:50;;;;;;;1.92;0.88;;;3.00;99.90;;;;;;6219944;23;20190;-61
2022/01/21 12:46:23;;;;;;;4.03;0.73;;;3.00;99.90;;;;;;6219894;23;20144;-61
2022/01/21 12:48:49;;;;;;;5.13;0.90;;;3.00;99.90;;;;;;6218391;23;20550;-61
2022/01/21 12:56:49;;;;;;;5.18;1.15;;;3.00;99.90;;;;;;6217803;23;20172;-61
2022/01/21 12:59:29;;;;;;;5.55;1.20;;;3.00;99.90;;;;;;6216857;23;20691;-61
2022/01/21 13:01:56;;;;;;;6.53;1.05;;;3.00;99.90;;;;;;6217713;23;20121;-61
2022/01/21 13:04:49;;;;;;;5.72;1.00;;;3.00;99.90;;;;;;6217879;23;20156;-62
2022/01/21 13:08:03;;;;;;;2.58;1.00;;;3.00;99.90;;;;;;6217541;23;20161;-62
2022/01/21 13:10:29;;;;;;;2.22;0.73;;;3.00;99.90;;;;;;6154235;23;20226;-63
2022/01/21 13:13:15;;;;;;;3.67;0.93;;;3.00;99.90;;;;;;6218351;23;20168;-62
2022/01/21 13:15:42;;;;;;;2.55;0.85;;;3.00;99.90;;;;;;6217970;23;20144;-62
2022/01/21 13:18:12;;;;;;;4.38;0.85;;;3.10;99.90;;;;;;6218119;23;20206;-62
2022/01/21 13:20:42;;;;;;;4.93;0.85;;;3.10;99.90;;;;;;6218425;23;20148;-62
2022/01/21 13:23:07;;;;;;;4.32;0.90;;;3.10;99.90;;;;;;6218237;23;20151;-62
2022/01/21 13:25:35;;;;;;;3.17;0.90;;;3.10;99.90;;;;;;6192205;23;20145;-61
2022/01/21 13:28:03;;;;;;;4.28;0.98;;;3.10;99.90;;;;;;6218366;23;20247;-62
2022/01/21 13:30:31;;;;;;;4.85;0.85;;;3.10;99.90;;;;;;6217989;23;20151;-62
2022/01/21 13:32:59;;;;;;;5.03;0.90;;;3.20;99.90;;;;;;6217991;23;20195;-62
2022/01/21 13:35:25;;;;;;;5.63;1.00;;;3.20;99.90;;;;;;6218050;23;20153;-62
2022/01/21 13:38:12;;;;;;;4.03;0.90;;;3.20;99.90;;;;;;6217874;23;20310;-62
2022/01/21 13:40:43;;;;;;;3.33;1.05;;;3.20;99.90;;;;;;6218116;23;20527;-62
2022/01/21 13:43:23;;;;;;;3.80;0.63;;;3.20;99.90;;;;;;6217889;23;20136;-62
2022/01/21 13:45:59;;;;;;;4.72;1.30;;;3.20;99.90;;;;;;6217633;23;20133;-62
2022/01/21 13:48:25;;;;;;;7.05;1.10;;;3.20;99.90;;;;;;6217509;23;20136;-62
2022/01/21 13:50:51;;;;;;;3.53;1.20;;;3.20;99.90;;;;;;6217803;23;20145;-61
2022/01/21 13:53:17;;;;;;;3.38;1.13;;;3.30;99.90;;;;;;6217893;23;20195;-62
2022/01/21 13:55:46;;;;;;;5.05;1.20;;;3.30;99.90;;;;;;6218065;23;20232;-61
2022/01/21 13:58:24;;;;;;;4.03;1.27;;;3.30;99.90;;;;;;6223212;23;20156;-62
2022/01/21 14:00:52;;;;;;;7.80;1.55;;;3.30;99.90;;;;;;6202991;23;20137;-62